createdAt,value
2023-03-16T00:00:38.556Z,99.99
2023-03-16T00:03:08.319Z,99.99
2023-03-16T00:05:38.358Z,99.99
2023-03-16T00:08:08.377Z,99.99
2023-03-16T00:10:38.160Z,99.99
2023-03-16T00:13:08.232Z,99.99
2023-03-16T00:15:37.914Z,99.99
2023-03-16T00:18:07.789Z,99.99
2023-03-16T00:20:37.689Z,99.99
2023-03-16T00:23:07.300Z,99.99
2023-03-16T00:25:37.325Z,99.99
2023-03-16T00:28:06.982Z,99.99
2023-03-16T00:30:36.689Z,99.99
2023-03-16T00:33:09.961Z,99.99
2023-03-16T00:35:40.888Z,99.99
2023-03-16T00:38:13.100Z,99.99
2023-03-16T00:40:42.945Z,99.99
2023-03-16T00:43:13.206Z,99.99
2023-03-16T00:45:46.144Z,99.99
2023-03-16T00:48:17.581Z,99.99
2023-03-16T00:50:48.354Z,99.99
2023-03-16T00:53:18.328Z,99.99
2023-03-16T00:55:47.981Z,99.99
2023-03-16T00:58:17.614Z,99.99
2023-03-16T01:00:48.903Z,99.99
2023-03-16T01:03:18.884Z,99.99
2023-03-16T01:05:50.226Z,99.99
2023-03-16T01:08:20.995Z,99.99
2023-03-16T01:10:51.034Z,99.99
2023-03-16T01:13:20.860Z,99.99
2023-03-16T01:15:53.183Z,99.99
2023-03-16T01:18:23.570Z,99.99
2023-03-16T01:20:53.447Z,99.99
2023-03-16T01:23:23.806Z,99.99
2023-03-16T01:25:56.293Z,99.99
2023-03-16T01:28:29.241Z,99.99
2023-03-16T01:31:05.090Z,99.99
2023-03-16T01:33:36.519Z,99.99
2023-03-16T01:36:12.272Z,99.99
2023-03-16T01:38:49.389Z,99.99
2023-03-16T01:41:19.715Z,99.99
2023-03-16T01:43:49.796Z,99.99
2023-03-16T01:46:21.478Z,99.99
2023-03-16T01:49:13.543Z,99.99
2023-03-16T01:51:53.313Z,99.99
2023-03-16T01:54:30.487Z,99.99
2023-03-16T01:57:26.768Z,99.99
2023-03-16T02:00:31.385Z,99.99
2023-03-16T02:03:19.969Z,99.99
2023-03-16T02:06:02.536Z,99.99
2023-03-16T02:08:33.790Z,99.99
2023-03-16T02:11:05.898Z,99.99
2023-03-16T02:14:10.443Z,99.99
2023-03-16T02:16:42.149Z,99.99
2023-03-16T02:19:21.473Z,99.99
2023-03-16T02:22:00.555Z,99.99
2023-03-16T02:24:30.969Z,99.99
2023-03-16T02:27:07.924Z,99.99
2023-03-16T02:29:57.398Z,99.99
2023-03-16T02:32:32.109Z,99.99
2023-03-16T02:35:05.007Z,99.99
2023-03-16T02:37:35.774Z,99.99
2023-03-16T02:40:22.565Z,99.99
2023-03-16T02:43:09.523Z,99.99
2023-03-16T02:45:48.214Z,99.99
2023-03-16T02:48:59.598Z,99.99
2023-03-16T02:51:29.403Z,99.99
2023-03-16T02:54:00.396Z,99.99
2023-03-16T02:56:32.515Z,99.99
2023-03-16T02:59:02.597Z,99.99
2023-03-16T03:01:33.728Z,99.99
2023-03-16T03:04:04.705Z,99.99
2023-03-16T03:06:35.015Z,99.99
2023-03-16T03:09:06.530Z,99.99
2023-03-16T03:11:36.495Z,99.99
2023-03-16T03:14:07.580Z,99.99
2023-03-16T03:16:39.835Z,99.99
2023-03-16T03:19:10.015Z,99.99
2023-03-16T03:21:41.593Z,99.99
2023-03-16T03:24:12.113Z,99.99
2023-03-16T03:26:41.979Z,99.99
2023-03-16T03:29:18.501Z,99.99
2023-03-16T03:31:48.616Z,99.99
2023-03-16T03:34:18.613Z,99.99
2023-03-16T03:36:48.225Z,99.99
2023-03-16T03:39:18.050Z,99.99
2023-03-16T03:41:48.379Z,99.99
2023-03-16T03:44:18.773Z,99.99
2023-03-16T03:46:49.090Z,99.99
2023-03-16T03:49:19.387Z,99.99
2023-03-16T03:51:50.581Z,99.99
2023-03-16T03:54:26.752Z,99.99
2023-03-16T03:57:00.940Z,99.99
2023-03-16T03:59:30.984Z,99.99
2023-03-16T04:02:18.985Z,99.99
2023-03-16T04:04:57.152Z,99.99
2023-03-16T04:07:26.994Z,99.99
2023-03-16T04:10:01.406Z,99.99
2023-03-16T04:12:39.811Z,99.99
2023-03-16T04:15:14.768Z,99.99
2023-03-16T04:18:06.422Z,99.99
2023-03-16T04:20:37.351Z,99.99
2023-03-16T04:23:08.169Z,99.99
2023-03-16T04:25:40.332Z,99.99
2023-03-16T04:28:12.095Z,99.99
2023-03-16T04:30:44.171Z,99.99
2023-03-16T04:33:25.442Z,99.99
2023-03-16T04:35:55.696Z,99.99
2023-03-16T04:38:26.319Z,99.99
2023-03-16T04:40:58.720Z,99.99
2023-03-16T04:43:35.551Z,99.99
2023-03-16T04:46:19.931Z,99.99
2023-03-16T04:48:49.774Z,99.99
2023-03-16T04:51:19.880Z,99.99
2023-03-16T04:54:00.916Z,99.99
2023-03-16T04:56:36.452Z,99.99
2023-03-16T04:59:11.995Z,99.99
2023-03-16T05:01:59.909Z,99.99
2023-03-16T05:04:30.397Z,99.99
2023-03-16T05:07:00.436Z,99.99
2023-03-16T05:09:35.367Z,99.99
2023-03-16T05:12:05.391Z,99.99
2023-03-16T05:14:37.217Z,99.99
2023-03-16T05:17:23.745Z,99.99
2023-03-16T05:19:53.893Z,99.99
2023-03-16T05:22:24.754Z,99.99
2023-03-16T05:25:22.197Z,99.99
2023-03-16T05:27:55.593Z,99.99
2023-03-16T05:30:46.321Z,99.99
2023-03-16T05:33:22.744Z,99.99
2023-03-16T05:35:59.224Z,99.99
2023-03-16T05:38:29.401Z,99.99
2023-03-16T05:41:04.646Z,99.99
2023-03-16T05:43:58.525Z,99.99
2023-03-16T05:46:39.311Z,99.99
2023-03-16T05:49:09.941Z,99.99
2023-03-16T05:51:40.092Z,99.99
2023-03-16T05:54:10.189Z,99.99
2023-03-16T05:56:46.603Z,99.99
2023-03-16T05:59:19.296Z,99.99
2023-03-16T06:01:55.198Z,99.99
2023-03-16T06:04:25.248Z,99.99
2023-03-16T06:06:55.156Z,99.99
2023-03-16T06:09:28.728Z,99.99
2023-03-16T06:11:58.748Z,99.99
2023-03-16T06:14:28.348Z,99.99
2023-03-16T06:16:58.170Z,99.99
2023-03-16T06:19:27.910Z,99.99
2023-03-16T06:22:02.031Z,99.99
2023-03-16T06:24:32.907Z,99.99
2023-03-16T06:27:02.695Z,99.99
2023-03-16T06:29:38.873Z,99.99
2023-03-16T06:32:09.034Z,99.99
2023-03-16T06:34:38.818Z,99.99
2023-03-16T06:37:09.557Z,99.99
2023-03-16T06:39:40.324Z,99.99
2023-03-16T06:42:10.190Z,99.99
2023-03-16T06:44:41.078Z,99.99
2023-03-16T06:47:14.653Z,99.99
2023-03-16T06:49:44.521Z,99.99
2023-03-16T06:52:19.232Z,99.99
2023-03-16T06:54:49.064Z,99.99
2023-03-16T06:57:20.599Z,99.99
2023-03-16T06:59:52.313Z,99.99
2023-03-16T07:02:24.706Z,99.99
2023-03-16T07:04:55.302Z,99.99
2023-03-16T07:07:26.166Z,99.99
2023-03-16T07:09:56.260Z,99.99
2023-03-16T07:12:25.941Z,99.99
2023-03-16T07:14:55.864Z,99.99
2023-03-16T07:17:27.469Z,99.99
2023-03-16T07:19:57.436Z,99.99
2023-03-16T07:22:28.332Z,99.99
2023-03-16T07:24:58.576Z,99.99
2023-03-16T07:27:31.029Z,99.99
2023-03-16T07:30:05.782Z,99.99
2023-03-16T07:32:38.777Z,99.99
2023-03-16T07:35:09.802Z,99.99
2023-03-16T07:37:40.994Z,99.99
2023-03-16T07:40:12.942Z,99.99
2023-03-16T07:42:43.428Z,99.99
2023-03-16T07:45:19.052Z,99.99
2023-03-16T07:47:50.294Z,99.99
2023-03-16T07:50:39.832Z,99.99
2023-03-16T07:53:10.358Z,99.99
2023-03-16T07:55:43.361Z,99.99
2023-03-16T07:58:14.348Z,99.99
2023-03-16T08:00:45.346Z,99.99
2023-03-16T08:03:15.404Z,99.99
2023-03-16T08:05:46.464Z,99.99
2023-03-16T08:08:19.088Z,99.99
2023-03-16T08:10:56.760Z,99.99
2023-03-16T08:13:36.607Z,99.99
2023-03-16T08:16:11.458Z,99.99
2023-03-16T08:18:43.608Z,99.99
2023-03-16T08:21:13.818Z,99.99
2023-03-16T08:23:45.256Z,99.99
2023-03-16T08:26:15.226Z,99.99
2023-03-16T08:28:48.829Z,99.99
2023-03-16T08:31:20.768Z,99.99
2023-03-16T08:34:01.129Z,99.99
2023-03-16T08:36:32.723Z,99.99
2023-03-16T08:39:07.262Z,99.99
2023-03-16T08:41:44.408Z,99.99
2023-03-16T08:44:26.974Z,99.99
2023-03-16T08:46:57.044Z,99.99
2023-03-16T08:49:28.418Z,99.99
2023-03-16T08:52:07.523Z,99.99
2023-03-16T08:54:37.777Z,99.99
2023-03-16T08:57:07.826Z,99.99
2023-03-16T08:59:37.830Z,99.99
2023-03-16T09:02:08.251Z,99.99
2023-03-16T09:04:38.842Z,99.99
2023-03-16T09:07:10.113Z,99.99
2023-03-16T09:09:40.950Z,99.99
2023-03-16T09:12:11.626Z,99.99
2023-03-16T09:14:42.784Z,99.99
2023-03-16T09:17:12.852Z,99.99
2023-03-16T09:20:03.138Z,99.99
2023-03-16T09:22:32.420Z,99.99
2023-03-16T09:25:02.467Z,99.99
2023-03-16T09:27:32.317Z,99.99
2023-03-16T09:30:03.746Z,99.99
2023-03-16T09:32:34.648Z,99.99
2023-03-16T09:35:07.387Z,99.99
2023-03-16T09:37:44.890Z,99.99
2023-03-16T09:40:42.682Z,99.99
2023-03-16T09:43:59.737Z,99.99
2023-03-16T09:46:36.143Z,99.99
2023-03-16T09:49:06.628Z,99.99
2023-03-16T09:51:54.486Z,99.99
2023-03-16T09:54:51.302Z,99.99
2023-03-16T09:57:31.583Z,99.99
2023-03-16T10:00:21.412Z,99.99
2023-03-16T10:03:02.719Z,99.99
2023-03-16T10:05:34.874Z,99.99
2023-03-16T10:08:18.901Z,99.99
2023-03-16T10:11:17.259Z,99.99
2023-03-16T10:14:12.335Z,99.99
2023-03-16T10:16:51.635Z,99.99
2023-03-16T10:19:55.576Z,99.99
2023-03-16T10:22:34.707Z,99.99
2023-03-16T10:25:10.489Z,99.99
2023-03-16T10:27:44.553Z,99.99
2023-03-16T10:30:19.991Z,99.99
2023-03-16T10:32:50.848Z,99.99
2023-03-16T10:36:03.729Z,99.99
2023-03-16T10:38:39.913Z,99.99
2023-03-16T10:41:27.028Z,99.99
2023-03-16T10:44:08.678Z,99.99
2023-03-16T10:46:42.866Z,99.99
2023-03-16T10:49:28.312Z,99.99
2023-03-16T10:52:04.951Z,99.99
2023-03-16T10:54:41.828Z,99.99
2023-03-16T10:57:30.714Z,99.99
2023-03-16T11:00:16.177Z,99.99
2023-03-16T11:02:45.985Z,99.99
2023-03-16T11:05:17.408Z,99.99
2023-03-16T11:08:00.679Z,99.99
2023-03-16T11:10:46.043Z,99.99
2023-03-16T11:13:23.833Z,99.99
2023-03-16T11:16:12.899Z,99.99
2023-03-16T11:18:48.840Z,99.99
2023-03-16T11:21:34.140Z,99.99
2023-03-16T11:24:05.767Z,99.99
2023-03-16T11:26:44.052Z,97.95
2023-03-16T11:29:20.220Z,98.42
2023-03-16T11:31:57.535Z,98.07
2023-03-16T11:34:33.062Z,97.81
2023-03-16T11:37:31.293Z,99.32
2023-03-16T11:40:31.882Z,97.42
2023-03-16T11:43:12.204Z,98.79
2023-03-16T11:46:04.790Z,97.94
2023-03-16T11:48:37.869Z,95.36
2023-03-16T11:51:38.362Z,95.51
2023-03-16T11:54:39.233Z,95.71
2023-03-16T11:57:30.010Z,95.22
2023-03-16T12:00:04.565Z,94.25
2023-03-16T12:03:11.354Z,95.15
2023-03-16T12:05:46.970Z,95.54
2023-03-16T12:08:16.824Z,96.72
2023-03-16T12:11:07.340Z,95.73
2023-03-16T12:14:01.697Z,95.00
2023-03-16T12:16:49.065Z,94.29
2023-03-16T12:19:26.116Z,93.94
2023-03-16T12:22:09.871Z,94.78
2023-03-16T12:24:48.298Z,94.59
2023-03-16T12:27:26.593Z,93.23
2023-03-16T12:30:27.085Z,93.78
2023-03-16T12:33:16.142Z,92.82
2023-03-16T12:35:58.644Z,91.67
2023-03-16T12:39:05.051Z,91.48
2023-03-16T12:41:43.660Z,88.86
2023-03-16T12:44:41.645Z,88.63
2023-03-16T12:47:26.715Z,87.89
2023-03-16T12:50:04.626Z,87.33
2023-03-16T12:52:55.052Z,88.64
2023-03-16T12:55:42.194Z,87.38
2023-03-16T12:58:13.950Z,86.99
2023-03-16T13:00:44.045Z,88.45
2023-03-16T13:03:21.184Z,88.99
2023-03-16T13:05:58.948Z,89.92
2023-03-16T13:08:30.149Z,89.45
2023-03-16T13:11:08.316Z,87.98
2023-03-16T13:13:53.771Z,87.30
2023-03-16T13:16:42.044Z,86.78
2023-03-16T13:19:30.528Z,84.68
2023-03-16T13:22:28.540Z,83.58
2023-03-16T13:25:02.415Z,78.99
2023-03-16T13:27:37.996Z,77.42
2023-03-16T13:30:30.038Z,85.34
2023-03-16T13:33:14.984Z,84.81
2023-03-16T13:35:45.025Z,86.22
2023-03-16T13:38:20.092Z,86.97
2023-03-16T13:40:55.615Z,86.91
2023-03-16T13:43:30.954Z,88.04
2023-03-16T13:46:01.541Z,86.75
2023-03-16T13:48:31.564Z,86.55
2023-03-16T13:51:02.064Z,85.97
2023-03-16T13:53:34.499Z,85.96
2023-03-16T13:56:05.549Z,87.26
2023-03-16T13:58:38.999Z,86.18
2023-03-16T14:01:28.020Z,86.09
2023-03-16T14:04:01.547Z,84.32
2023-03-16T14:06:32.856Z,84.60
2023-03-16T14:09:06.019Z,82.58
2023-03-16T14:11:36.187Z,83.70
2023-03-16T14:14:18.985Z,83.60
2023-03-16T14:16:51.053Z,83.37
2023-03-16T14:19:26.930Z,84.85
2023-03-16T14:21:58.183Z,84.27
2023-03-16T14:24:32.444Z,84.19
2023-03-16T14:27:44.505Z,88.64
2023-03-16T14:30:27.013Z,87.81
2023-03-16T14:33:03.977Z,87.95
2023-03-16T14:35:42.430Z,87.91
2023-03-16T14:38:37.310Z,87.15
2023-03-16T14:41:10.328Z,86.97
2023-03-16T14:44:00.831Z,87.96
2023-03-16T14:46:41.605Z,87.56
2023-03-16T14:49:38.642Z,85.49
2023-03-16T14:52:18.604Z,84.33
2023-03-16T14:54:48.788Z,85.41
2023-03-16T14:57:20.724Z,85.54
2023-03-16T14:59:50.748Z,84.95
2023-03-16T15:02:34.487Z,85.85
2023-03-16T15:05:05.576Z,86.21
2023-03-16T15:07:40.044Z,85.26
2023-03-16T15:10:31.887Z,84.70
2023-03-16T15:13:14.459Z,85.37
2023-03-16T15:15:45.152Z,85.51
2023-03-16T15:18:15.190Z,83.34
2023-03-16T15:20:46.943Z,83.77
2023-03-16T15:23:19.507Z,80.63
2023-03-16T15:25:50.980Z,79.30
2023-03-16T15:28:23.602Z,80.68
2023-03-16T15:30:58.679Z,78.29
2023-03-16T15:33:28.544Z,79.63
2023-03-16T15:36:01.280Z,79.57
2023-03-16T15:38:37.313Z,78.53
2023-03-16T15:41:12.609Z,76.82
2023-03-16T15:43:42.454Z,77.93
2023-03-16T15:46:13.345Z,76.62
2023-03-16T15:48:43.799Z,75.58
2023-03-16T15:51:22.873Z,74.58
2023-03-16T15:53:56.319Z,73.41
2023-03-16T15:56:32.326Z,73.39
2023-03-16T15:59:08.434Z,73.33
2023-03-16T16:01:48.745Z,73.24
2023-03-16T16:04:25.398Z,72.71
2023-03-16T16:06:57.395Z,71.42
2023-03-16T16:09:27.223Z,72.22
2023-03-16T16:11:57.524Z,72.47
2023-03-16T16:14:29.196Z,72.09
2023-03-16T16:16:59.469Z,75.53
2023-03-16T16:19:31.156Z,71.98
2023-03-16T16:22:02.068Z,73.67
2023-03-16T16:24:31.890Z,74.28
2023-03-16T16:27:01.877Z,75.76
2023-03-16T16:29:34.960Z,74.95
2023-03-16T16:32:05.112Z,73.24
2023-03-16T16:34:34.815Z,72.94
2023-03-16T16:37:04.435Z,74.94
2023-03-16T16:39:35.103Z,75.60
2023-03-16T16:42:05.290Z,74.96
2023-03-16T16:44:37.542Z,75.09
2023-03-16T16:47:25.194Z,71.32
2023-03-16T16:49:55.108Z,72.42
2023-03-16T16:52:24.732Z,74.70
2023-03-16T16:54:54.488Z,77.78
2023-03-16T16:57:24.392Z,79.74
2023-03-16T16:59:54.102Z,79.98
2023-03-16T17:02:44.992Z,80.72
2023-03-16T17:05:23.786Z,76.26
2023-03-16T17:07:54.432Z,72.05
2023-03-16T17:10:28.933Z,69.25
2023-03-16T17:12:59.040Z,71.55
2023-03-16T17:15:31.726Z,70.25
2023-03-16T17:18:09.215Z,68.99
2023-03-16T17:20:40.050Z,69.69
2023-03-16T17:23:35.319Z,72.37
2023-03-16T17:26:20.439Z,73.80
2023-03-16T17:28:59.604Z,75.30
2023-03-16T17:31:36.268Z,75.96
2023-03-16T17:34:24.768Z,77.90
2023-03-16T17:36:55.467Z,77.42
2023-03-16T17:39:27.076Z,78.54
2023-03-16T17:42:03.317Z,78.36
2023-03-16T17:44:40.597Z,78.05
2023-03-16T17:47:27.826Z,79.27
2023-03-16T17:49:58.141Z,79.10
2023-03-16T17:52:30.365Z,77.33
2023-03-16T17:55:00.422Z,76.99
2023-03-16T17:57:32.339Z,77.43
2023-03-16T18:00:05.813Z,79.63
2023-03-16T18:02:41.453Z,79.95
2023-03-16T18:06:00.295Z,82.22
2023-03-16T18:08:34.422Z,80.94
2023-03-16T18:11:09.491Z,82.58
2023-03-16T18:13:42.197Z,82.61
2023-03-16T18:16:18.676Z,80.06
2023-03-16T18:18:48.905Z,80.47
2023-03-16T18:21:25.694Z,77.27
2023-03-16T18:23:56.246Z,76.53
2023-03-16T18:26:26.399Z,75.51
2023-03-16T18:28:56.707Z,75.58
2023-03-16T18:31:29.158Z,75.46
2023-03-16T18:34:02.255Z,74.10
2023-03-16T18:36:38.914Z,74.11
2023-03-16T18:39:17.384Z,75.67
2023-03-16T18:41:51.091Z,73.95
2023-03-16T18:44:30.989Z,73.89
2023-03-16T18:47:04.609Z,75.66
2023-03-16T18:49:38.382Z,75.39
2023-03-16T18:52:18.301Z,76.41
2023-03-16T18:54:49.323Z,75.54
2023-03-16T18:57:21.910Z,75.60
2023-03-16T18:59:52.817Z,76.13
2023-03-16T19:02:30.555Z,75.78
2023-03-16T19:05:04.231Z,76.49
2023-03-16T19:07:36.541Z,77.10
2023-03-16T19:10:40.064Z,77.12
2023-03-16T19:13:22.695Z,76.17
2023-03-16T19:15:54.260Z,76.03
2023-03-16T19:18:27.279Z,76.62
2023-03-16T19:20:57.879Z,77.39
2023-03-16T19:23:37.416Z,76.32
2023-03-16T19:26:07.590Z,76.67
2023-03-16T19:28:40.461Z,77.62
2023-03-16T19:31:22.209Z,78.41
2023-03-16T19:33:53.632Z,78.51
2023-03-16T19:36:28.830Z,77.83
2023-03-16T19:38:59.613Z,78.22
2023-03-16T19:41:39.661Z,79.13
2023-03-16T19:44:21.833Z,76.49
2023-03-16T19:46:52.054Z,78.11
2023-03-16T19:49:24.202Z,78.76
2023-03-16T19:51:57.302Z,78.90
2023-03-16T19:54:35.106Z,79.05
2023-03-16T19:57:15.364Z,81.10
2023-03-16T19:59:56.590Z,81.02
2023-03-16T20:02:44.200Z,82.80
2023-03-16T20:05:22.507Z,81.55
2023-03-16T20:07:53.721Z,81.57
2023-03-16T20:10:26.618Z,81.88
2023-03-16T20:12:59.476Z,83.19
2023-03-16T20:15:33.528Z,82.99
2023-03-16T20:18:04.151Z,83.31
2023-03-16T20:20:39.661Z,82.24
2023-03-16T20:23:28.497Z,82.81
2023-03-16T20:26:02.849Z,82.23
2023-03-16T20:28:37.343Z,82.60
2023-03-16T20:31:09.181Z,82.52
2023-03-16T20:33:39.228Z,83.64
2023-03-16T20:36:14.859Z,83.87
2023-03-16T20:38:45.363Z,85.27
2023-03-16T20:41:22.422Z,85.72
2023-03-16T20:43:52.903Z,84.32
2023-03-16T20:46:27.396Z,84.53
2023-03-16T20:48:58.452Z,84.63
2023-03-16T20:51:29.989Z,88.58
2023-03-16T20:54:01.308Z,88.84
2023-03-16T20:56:32.632Z,89.54
2023-03-16T20:59:02.589Z,90.24
2023-03-16T21:01:33.364Z,90.30
2023-03-16T21:04:04.571Z,91.30
2023-03-16T21:06:34.935Z,90.76
2023-03-16T21:09:05.194Z,92.23
2023-03-16T21:11:40.174Z,92.16
2023-03-16T21:14:19.637Z,91.89
2023-03-16T21:16:49.841Z,93.99
2023-03-16T21:19:23.801Z,93.61
2023-03-16T21:21:54.192Z,94.64
2023-03-16T21:24:24.271Z,94.52
2023-03-16T21:26:55.087Z,95.52
2023-03-16T21:29:25.340Z,95.92
2023-03-16T21:31:55.141Z,95.45
2023-03-16T21:34:35.298Z,96.96
2023-03-16T21:37:13.602Z,97.82
2023-03-16T21:39:43.476Z,98.64
2023-03-16T21:42:13.616Z,99.37
2023-03-16T21:44:43.694Z,99.26
2023-03-16T21:47:28.739Z,99.99
2023-03-16T21:50:00.351Z,99.99
2023-03-16T21:52:31.498Z,99.99
2023-03-16T21:55:01.896Z,99.99
2023-03-16T21:57:32.129Z,99.99
2023-03-16T22:00:02.332Z,99.99
2023-03-16T22:02:38.212Z,99.99
2023-03-16T22:05:20.615Z,99.99
2023-03-16T22:07:51.124Z,99.99
2023-03-16T22:10:21.761Z,99.99
2023-03-16T22:12:52.623Z,99.99
2023-03-16T22:15:26.158Z,99.99
2023-03-16T22:17:58.267Z,99.99
2023-03-16T22:20:29.298Z,99.99
2023-03-16T22:23:00.572Z,99.99
2023-03-16T22:25:30.886Z,99.99
2023-03-16T22:28:00.964Z,99.99
2023-03-16T22:30:30.830Z,99.99
2023-03-16T22:33:02.342Z,99.99
2023-03-16T22:35:38.649Z,99.99
2023-03-16T22:38:12.639Z,99.99
2023-03-16T22:40:43.830Z,99.99
2023-03-16T22:43:17.374Z,99.99
2023-03-16T22:45:47.254Z,99.99
2023-03-16T22:48:23.534Z,99.99
2023-03-16T22:50:54.408Z,99.99
2023-03-16T22:53:47.065Z,99.99
2023-03-16T22:56:17.332Z,99.99
2023-03-16T22:58:55.480Z,99.99
2023-03-16T23:01:37.126Z,99.99
2023-03-16T23:04:31.244Z,99.99
2023-03-16T23:07:01.109Z,99.99
2023-03-16T23:09:30.892Z,99.99
2023-03-16T23:12:02.689Z,99.99
2023-03-16T23:14:36.339Z,99.99
2023-03-16T23:17:07.880Z,99.99
2023-03-16T23:19:38.637Z,99.99
2023-03-16T23:22:08.826Z,99.99
2023-03-16T23:24:40.101Z,99.99
2023-03-16T23:27:22.540Z,99.99
2023-03-16T23:29:52.612Z,99.99
2023-03-16T23:32:22.987Z,99.99
2023-03-16T23:34:52.825Z,99.99
2023-03-16T23:37:22.818Z,99.99
2023-03-16T23:39:52.611Z,99.99
2023-03-16T23:42:22.266Z,99.99
2023-03-16T23:44:53.208Z,99.99
2023-03-16T23:47:23.495Z,99.99
2023-03-16T23:49:53.605Z,99.99
2023-03-16T23:52:23.472Z,99.99
2023-03-16T23:54:53.327Z,99.99
2023-03-16T23:57:22.955Z,99.99
2023-03-16T23:59:52.577Z,99.99
